Dades meteomassalio
Diari Summary for Noviembre 30, 2017 Units:  Metric    English   Both
« Previous Day
Next Day »
Diari Semanal Mensual Anual Personalitzat
  Maxima: Minima: Mijana:
Temperatura: -17.8 °C -18.7 °C -15 °C
Rosada: -17.8 °C -20.7 °C -18.3 °C
Humitat: Humidity % 48 % 66 %
Velocitat del vent: 0 km/h 0 km/h 35.9 km/h
Racha vent: 0 km/h - -
Vent:- - WNW
Pressio: 0 hPa 34327.3 hPa -
Pluja: 0 mm    
Historical Graphs
 
 
Tabular Data for Noviembre 30, 2017
Time Temperature Dew Point Pressure Wind Wind Speed Wind Gust Humidity Rainfall Rate (Hourly) solar Conditions
-17.8 °C -17.8 °C 0 hPa Calm     Humidity % 0 mm SolarRadiationWatts/m^2 W/m2 Conditions
00:02 -15 °C -17.6 °C 34327.3 hPa NW 44.7 km/h 44.7 km/h 72 % 0 mm 0.0 W/m2 CLR
00:07 -15.3 °C -17.9 °C 34337.4 hPa WNW 47.6 km/h 47.6 km/h 72 % 0 mm 0.0 W/m2 CLR
00:12 -15 °C -17.4 °C 34337.4 hPa NW 50.7 km/h 50.7 km/h 73 % 0 mm 0.0 W/m2 CLR
00:17 -15 °C -17.4 °C 34337.4 hPa NW 41.7 km/h 41.7 km/h 73 % 0 mm 0.0 W/m2 CLR
00:27 -15.3 °C -17.8 °C 34337.4 hPa NW 53.6 km/h 53.6 km/h 73 % 0 mm 0.0 W/m2 CLR
00:37 -15.3 °C -17.7 °C 34337.4 hPa NNW 50.7 km/h 50.7 km/h 74 % 0 mm 0.0 W/m2 CLR
00:42 -15.3 °C -17.7 °C 34337.4 hPa WNW 41.7 km/h 41.7 km/h 74 % 0 mm 0.0 W/m2 CLR
00:47 -15.3 °C -17.7 °C 34347.6 hPa NW 35.7 km/h 35.7 km/h 74 % 0 mm 0.0 W/m2 CLR
00:52 -15.3 °C -17.7 °C 34347.6 hPa NNW 38.8 km/h 38.8 km/h 74 % 0 mm 0.0 W/m2 CLR
00:57 -15.3 °C -17.7 °C 34347.6 hPa NNW 29.8 km/h 29.8 km/h 74 % 0 mm 0.0 W/m2 CLR
01:07 -15.3 °C -17.7 °C 34361.1 hPa NW 29.8 km/h 29.8 km/h 74 % 0 mm 0.0 W/m2 CLR
01:12 -15.3 °C -17.7 °C 34361.1 hPa NW 29.8 km/h 29.8 km/h 74 % 0 mm 0.0 W/m2 CLR
01:17 -15.3 °C -17.7 °C 34361.1 hPa NW 32.8 km/h 32.8 km/h 74 % 0 mm 0.0 W/m2 CLR
01:22 -15.6 °C -17.9 °C 34361.1 hPa NW 33.6 km/h 33.6 km/h 74 % 0 mm 0.0 W/m2 CLR
01:27 -15.6 °C -17.9 °C 34361.1 hPa WNW 32.8 km/h 32.8 km/h 74 % 0 mm 0.0 W/m2 CLR
01:54 -15.6 °C -17.9 °C 34361.1 hPa WSW 26.9 km/h 26.9 km/h 74 % 0 mm 0.0 W/m2 CLR
02:04 -15.6 °C -17.9 °C 34361.1 hPa WNW 23.3 km/h 23.3 km/h 74 % 0 mm 0.0 W/m2 CLR
02:09 -15.9 °C -18.3 °C 34361.1 hPa WNW 29.8 km/h 29.8 km/h 74 % 0 mm 0.0 W/m2 CLR
02:14 -15.9 °C -18.3 °C 34361.1 hPa NNW 25.9 km/h 25.9 km/h 74 % 0 mm 0.0 W/m2 CLR
02:19 -15.9 °C -18.3 °C 34371.3 hPa NW 26.9 km/h 26.9 km/h 74 % 0 mm 0.0 W/m2 CLR
02:24 -15.9 °C -18.3 °C 34361.1 hPa WNW 23.8 km/h 23.8 km/h 74 % 0 mm 0.0 W/m2 CLR
02:29 -15.9 °C -18.3 °C 34371.3 hPa WNW 23.3 km/h 23.3 km/h 74 % 0 mm 0.0 W/m2 CLR
02:34 -15.9 °C -18.3 °C 34361.1 hPa NW 29.8 km/h 29.8 km/h 74 % 0 mm 0.0 W/m2 CLR
02:44 -15.9 °C -18.4 °C 34371.3 hPa WNW 26.9 km/h 26.9 km/h 73 % 0 mm 0.0 W/m2 CLR
02:49 -15.9 °C -18.4 °C 34371.3 hPa West 23.8 km/h 23.8 km/h 73 % 0 mm 0.0 W/m2 CLR
02:54 -15.9 °C -18.4 °C 34371.3 hPa WNW 20.9 km/h 20.9 km/h 73 % 0 mm 0.0 W/m2 CLR
02:59 -15.9 °C -18.4 °C 34371.3 hPa WNW 29.8 km/h 29.8 km/h 73 % 0 mm 0.0 W/m2 CLR
03:04 -16.2 °C -18.7 °C 34384.8 hPa WNW 29.8 km/h 29.8 km/h 73 % 0 mm 0.0 W/m2 CLR
03:09 -16.2 °C -18.7 °C 34384.8 hPa NW 31.1 km/h 31.1 km/h 73 % 0 mm 0.0 W/m2 CLR
03:14 -16.2 °C -18.7 °C 34371.3 hPa WNW 35.7 km/h 35.7 km/h 73 % 0 mm 0.0 W/m2 CLR
03:19 -16.2 °C -18.7 °C 34371.3 hPa NW 44.1 km/h 44.1 km/h 73 % 0 mm 0.0 W/m2 CLR
03:24 -16.2 °C -18.7 °C 34371.3 hPa NW 36.2 km/h 36.2 km/h 73 % 0 mm 0.0 W/m2 CLR
03:29 -15.9 °C -18.4 °C 34371.3 hPa NW 33.6 km/h 33.6 km/h 73 % 0 mm 0.0 W/m2 CLR
03:34 -15.9 °C -18.4 °C 34384.8 hPa NW 41.7 km/h 41.7 km/h 73 % 0 mm 0.0 W/m2 CLR
03:39 -15.9 °C -18.4 °C 34371.3 hPa NW 41.7 km/h 41.7 km/h 73 % 0 mm 0.0 W/m2 CLR
03:44 -15.9 °C -18.4 °C 34371.3 hPa WNW 41.7 km/h 41.7 km/h 73 % 0 mm 0.0 W/m2 CLR
03:49 -15.9 °C -18.4 °C 34371.3 hPa NW 38.8 km/h 38.8 km/h 73 % 0 mm 0.0 W/m2 CLR
03:54 -15.9 °C -18.4 °C 34384.8 hPa NW 38.8 km/h 38.8 km/h 73 % 0 mm 0.0 W/m2 CLR
03:59 -15.9 °C -18.4 °C 34395 hPa NW 28.5 km/h 28.5 km/h 72 % 0 mm 0.0 W/m2 CLR
04:09 -15.9 °C -18.4 °C 34395 hPa WNW 20.9 km/h 20.9 km/h 73 % 0 mm 0.0 W/m2 CLR
04:14 -16.2 °C -18.7 °C 34384.8 hPa NW 29.8 km/h 29.8 km/h 73 % 0 mm 0.0 W/m2 CLR
04:19 -16.2 °C -18.7 °C 34384.8 hPa WNW 28.5 km/h 28.5 km/h 73 % 0 mm 0.0 W/m2 CLR
04:24 -16.2 °C -18.7 °C 34384.8 hPa WNW 29.8 km/h 29.8 km/h 73 % 0 mm 0.0 W/m2 CLR
04:29 -16.2 °C -18.7 °C 34384.8 hPa WNW 35.7 km/h 35.7 km/h 73 % 0 mm 0.0 W/m2 CLR
04:34 -16.2 °C -18.7 °C 34395 hPa WNW 20.9 km/h 20.9 km/h 73 % 0 mm 0.0 W/m2 CLR
04:39 -16.6 °C -18.9 °C 34395 hPa NW 29.8 km/h 29.8 km/h 73 % 0 mm 0.0 W/m2 CLR
04:44 -16.2 °C -18.7 °C 34384.8 hPa NW 23.8 km/h 23.8 km/h 73 % 0 mm 0.0 W/m2 CLR
04:59 -16.2 °C -18.7 °C 34395 hPa West 15 km/h 15 km/h 73 % 0 mm 0.0 W/m2 CLR
05:04 -16.2 °C -18.7 °C 34395 hPa NW 17.9 km/h 17.9 km/h 73 % 0 mm 0.0 W/m2 CLR
05:09 -16.2 °C -18.7 °C 34384.8 hPa West 15 km/h 15 km/h 73 % 0 mm 0.0 W/m2 CLR
05:14 -16.2 °C -18.7 °C 34395 hPa WNW 29.8 km/h 29.8 km/h 73 % 0 mm 0.0 W/m2 CLR
05:19 -16.2 °C -18.7 °C 34395 hPa NW 9 km/h 9 km/h 73 % 0 mm 0.0 W/m2 CLR
05:24 -16.6 °C -18.9 °C 34395 hPa West 9 km/h 9 km/h 73 % 0 mm 0.0 W/m2 CLR
05:34 -16.8 °C -19.2 °C 34395 hPa West 9 km/h   74 % 0 mm 0.0 W/m2 CLR
05:39 -16.8 °C -19.2 °C 34395 hPa NW 9 km/h 9 km/h 74 % 0 mm 0.0 W/m2 CLR
05:44 -16.8 °C -19.2 °C 34395 hPa NW 7.7 km/h 7.7 km/h 74 % 0 mm 0.0 W/m2 CLR
05:49 -17.2 °C -19.3 °C 34395 hPa NW 15.6 km/h 15.6 km/h 75 % 0 mm 0.0 W/m2 CLR
05:59 -16.8 °C -19.1 °C 34405.1 hPa WNW 29.8 km/h 29.8 km/h 75 % 0 mm 0.0 W/m2 CLR
06:04 -16.8 °C -19.1 °C 34395 hPa NW 29.8 km/h 29.8 km/h 75 % 0 mm 0.0 W/m2 CLR
06:09 -16.8 °C -19.1 °C 34395 hPa NW 36.2 km/h 36.2 km/h 75 % 0 mm 0.0 W/m2 CLR
06:19 -16.8 °C -19.1 °C 34405.1 hPa NW 29.8 km/h 29.8 km/h 75 % 0 mm 0.0 W/m2 CLR
06:29 -16.6 °C -18.8 °C 34405.1 hPa NW 23.8 km/h 23.8 km/h 75 % 0 mm 0.0 W/m2 CLR
06:34 -16.8 °C -19.1 °C 34405.1 hPa NW 26.9 km/h 26.9 km/h 75 % 0 mm 0.0 W/m2 CLR
06:49 -17.2 °C -19.3 °C 34418.7 hPa NNW 17.9 km/h 17.9 km/h 75 % 0 mm 0.0 W/m2 CLR
06:55 -17.2 °C -19.3 °C 34418.7 hPa NNW 9 km/h 9 km/h 75 % 0 mm 0.0 W/m2 CLR
07:00 -17.4 °C -19.6 °C 34418.7 hPa North 20.9 km/h 20.9 km/h 76 % 0 mm 0.0 W/m2 CLR
07:06 -17.4 °C -19.6 °C 34418.7 hPa NNW 18.2 km/h 18.2 km/h 76 % 0 mm 0.0 W/m2 CLR
07:11 -17.8 °C -19.8 °C 34418.7 hPa Calm     77 % 0 mm 0.0 W/m2 CLR
07:16 -17.8 °C -19.8 °C 34418.7 hPa WNW 20.9 km/h 20.9 km/h 77 % 0 mm 0.0 W/m2 CLR
07:21 -17.8 °C -19.8 °C 34418.7 hPa WNW 9 km/h 9 km/h 77 % 0 mm 0.0 W/m2 CLR
07:31 -18.1 °C -20.1 °C 34418.7 hPa WNW 9 km/h 9 km/h 77 % 0 mm 0.0 W/m2 CLR
07:36 -18.4 °C -20.3 °C 34418.7 hPa WNW 15 km/h 15 km/h 77 % 0 mm 0.0 W/m2 CLR
07:41 -18.4 °C -20.2 °C 34428.8 hPa WNW 20.9 km/h 20.9 km/h 78 % 0 mm 0.0 W/m2 CLR
07:46 -18.7 °C -20.7 °C 34428.8 hPa West 23.8 km/h 23.8 km/h 77 % 0 mm 0.0 W/m2 CLR
07:51 -18.7 °C -20.6 °C 34428.8 hPa WNW 23.8 km/h 23.8 km/h 78 % 0 mm 0.0 W/m2 CLR
08:01 -18.7 °C -20.7 °C 34442.4 hPa WNW 29.8 km/h 29.8 km/h 77 % 0 mm 0.0 W/m2 OVC
08:11 -18.4 °C -20.2 °C 34442.4 hPa NW 29.8 km/h 29.8 km/h 78 % 0 mm 7.0 W/m2 BKN
08:21 -18.1 °C -20.1 °C 34442.4 hPa NW 29.8 km/h 29.8 km/h 77 % 0 mm 12.0 W/m2 BKN
08:26 -17.4 °C -19.4 °C 34452.6 hPa NW 35.7 km/h 35.7 km/h 77 % 0 mm 14.0 W/m2 BKN
08:36 -16.8 °C -18.8 °C 34452.6 hPa NNW 29.8 km/h 29.8 km/h 77 % 0 mm 21.0 W/m2 BKN
08:46 -16.8 °C -19.1 °C 34452.6 hPa NW 26.9 km/h 26.9 km/h 75 % 0 mm 44.0 W/m2 BKN
08:56 -16.6 °C -18.8 °C 34462.7 hPa NW 23.8 km/h 23.8 km/h 75 % 0 mm 65.0 W/m2 SCT
09:01 -16.6 °C -18.8 °C 34462.7 hPa WNW 26.9 km/h 26.9 km/h 74 % 0 mm 79.0 W/m2 FEW
09:06 -16.6 °C -18.8 °C 34462.7 hPa NW 20.9 km/h 20.9 km/h 74 % 0 mm 90.0 W/m2 FEW
09:11 -16.6 °C -18.9 °C 34462.7 hPa NW 31.1 km/h 31.1 km/h 73 % 0 mm 104.0 W/m2 CLR
09:16 -16.2 °C -18.7 °C 34476.3 hPa WNW 26.9 km/h 26.9 km/h 73 % 0 mm 114.0 W/m2 CLR
09:21 -16.2 °C -18.7 °C 34476.3 hPa NW 15.6 km/h 15.6 km/h 73 % 0 mm 121.0 W/m2 CLR
09:26 -15.9 °C -18.4 °C 34476.3 hPa NNW 23.8 km/h 23.8 km/h 72 % 0 mm 146.0 W/m2 CLR
09:31 -15.9 °C -18.6 °C 34476.3 hPa NW 15 km/h 15 km/h 71 % 0 mm 162.0 W/m2 CLR
09:36 -15.9 °C -18.6 °C 34486.4 hPa West 25.9 km/h 25.9 km/h 71 % 0 mm 174.0 W/m2 CLR
09:46 -15.6 °C -18.4 °C 34486.4 hPa NW 29.8 km/h 29.8 km/h 70 % 0 mm 137.0 W/m2 CLR
09:56 -15.6 °C -18.4 °C 34486.4 hPa NW 35.7 km/h 35.7 km/h 70 % 0 mm 171.0 W/m2 CLR
10:01 -15.3 °C -18.1 °C 34486.4 hPa NW 32.8 km/h 32.8 km/h 70 % 0 mm 246.0 W/m2 CLR
10:06 -15.3 °C -18.2 °C 34486.4 hPa NNW 44.7 km/h 44.7 km/h 69 % 0 mm 258.0 W/m2 CLR
10:11 -15.3 °C -18.2 °C 34486.4 hPa NW 44.7 km/h 44.7 km/h 69 % 0 mm 272.0 W/m2 CLR
10:16 -15.3 °C -18.2 °C 34486.4 hPa NW 29.8 km/h 29.8 km/h 69 % 0 mm 281.0 W/m2 CLR
10:21 -15.3 °C -18.3 °C 34496.6 hPa NNW 32.8 km/h 32.8 km/h 68 % 0 mm 292.0 W/m2 CLR
10:26 -15 °C -18 °C 34496.6 hPa NW 35.7 km/h 35.7 km/h 68 % 0 mm 301.0 W/m2 CLR
10:31 -15 °C -18.1 °C 34496.6 hPa WNW 36.2 km/h 36.2 km/h 67 % 0 mm 313.0 W/m2 CLR
10:36 -15 °C -18.1 °C 34496.6 hPa NNW 38.8 km/h 38.8 km/h 67 % 0 mm 322.0 W/m2 CLR
10:41 -14.7 °C -17.8 °C 34496.6 hPa NW 41.7 km/h 41.7 km/h 67 % 0 mm 330.0 W/m2 CLR
10:51 -14.7 °C -17.9 °C 34496.6 hPa NNW 17.9 km/h 17.9 km/h 66 % 0 mm 350.0 W/m2 CLR
10:56 -14.7 °C -18.1 °C 34510.1 hPa NW 38.8 km/h 38.8 km/h 65 % 0 mm 359.0 W/m2 CLR
11:01 -14.4 °C -17.8 °C 34510.1 hPa NNW 41.7 km/h 41.7 km/h 65 % 0 mm 364.0 W/m2 CLR
11:06 -14.4 °C -17.9 °C 34510.1 hPa North 20.9 km/h 20.9 km/h 64 % 0 mm 376.0 W/m2 CLR
11:11 -14.4 °C -18.1 °C 34510.1 hPa NNW 44.7 km/h 44.7 km/h 62 % 0 mm 385.0 W/m2 CLR
11:17 -14.1 °C -17.7 °C 34510.1 hPa NW 44.7 km/h 44.7 km/h 63 % 0 mm 390.0 W/m2 CLR
11:27 -14.1 °C -17.8 °C 34510.1 hPa NNW 49.2 km/h 49.2 km/h 62 % 0 mm 406.0 W/m2 CLR
11:32 -14.1 °C -17.9 °C 34510.1 hPa NNW 53.6 km/h 53.6 km/h 61 % 0 mm 408.0 W/m2 CLR
11:37 -14.1 °C -17.8 °C 34510.1 hPa North 36.2 km/h 36.2 km/h 62 % 0 mm 413.0 W/m2 CLR
11:42 -14.1 °C -18.1 °C 34510.1 hPa NNW 53.6 km/h 53.6 km/h 60 % 0 mm 422.0 W/m2 CLR
11:47 -13.8 °C -17.7 °C 34510.1 hPa NNW 50.7 km/h 50.7 km/h 61 % 0 mm 424.0 W/m2 CLR
11:52 -13.8 °C -17.7 °C 34496.6 hPa NW 50.7 km/h 50.7 km/h 61 % 0 mm 443.0 W/m2 CLR
11:57 -13.8 °C -17.8 °C 34496.6 hPa NW 41.7 km/h 41.7 km/h 60 % 0 mm 439.0 W/m2 CLR
12:02 -13.4 °C -17.8 °C 34496.6 hPa NNW 41.7 km/h 41.7 km/h 58 % 0 mm 439.0 W/m2 CLR
12:07 -13.4 °C -17.8 °C 34496.6 hPa North 53.6 km/h 53.6 km/h 58 % 0 mm 406.0 W/m2 CLR
12:17 -13.4 °C -17.9 °C 34496.6 hPa NW 56.6 km/h 56.6 km/h 57 % 0 mm 448.0 W/m2 CLR
12:22 -13.4 °C -18 °C 34486.4 hPa NW 53.6 km/h 53.6 km/h 56 % 0 mm 448.0 W/m2 CLR
12:28 -13.2 °C -17.7 °C 34486.4 hPa North 36.2 km/h 36.2 km/h 56 % 0 mm 450.0 W/m2 CLR
12:33 -13.2 °C -17.7 °C 34496.6 hPa North 65.5 km/h 65.5 km/h 56 % 0 mm 454.0 W/m2 CLR
12:38 -13.2 °C -17.7 °C 34486.4 hPa North 56.6 km/h 56.6 km/h 56 % 0 mm 452.0 W/m2 CLR
12:43 -13.2 °C -17.9 °C 34486.4 hPa North 57 km/h 57 km/h 55 % 0 mm 455.0 W/m2 CLR
12:48 -13.2 °C -17.9 °C 34486.4 hPa NNW 59.5 km/h 59.5 km/h 55 % 0 mm 454.0 W/m2 CLR
12:54 -13.2 °C -17.7 °C 34486.4 hPa NNW 50.7 km/h 50.7 km/h 56 % 0 mm 454.0 W/m2 CLR
13:14 -12.8 °C -17.6 °C 34476.3 hPa NNW 44.7 km/h 44.7 km/h 55 % 0 mm 452.0 W/m2 CLR
13:19 -12.8 °C -17.7 °C 34476.3 hPa NNE 44.7 km/h 44.7 km/h 54 % 0 mm 446.0 W/m2 CLR
13:24 -12.8 °C -17.9 °C 34486.4 hPa NNW 50.7 km/h 50.7 km/h 53 % 0 mm 387.0 W/m2 CLR
13:34 -12.6 °C -17.9 °C 34486.4 hPa NNW 59.5 km/h 59.5 km/h 51 % 0 mm 436.0 W/m2 CLR
13:44 -12.8 °C -18 °C 34486.4 hPa NNW 53.6 km/h 53.6 km/h 52 % 0 mm 431.0 W/m2 CLR
13:54 -12.6 °C -17.7 °C 34486.4 hPa NNW 41.7 km/h 41.7 km/h 52 % 0 mm 422.0 W/m2 CLR
13:59 -12.6 °C -17.7 °C 34476.3 hPa NNW 62.6 km/h 62.6 km/h 52 % 0 mm 417.0 W/m2 CLR
14:04 -12.6 °C -17.7 °C 34476.3 hPa NW 49.2 km/h 49.2 km/h 52 % 0 mm 410.0 W/m2 CLR
14:09 -12.6 °C -17.7 °C 34476.3 hPa NW 50.7 km/h 50.7 km/h 52 % 0 mm 408.0 W/m2 CLR
14:19 -12.2 °C -17.7 °C 34476.3 hPa North 59.5 km/h 59.5 km/h 50 % 0 mm 394.0 W/m2 CLR
14:24 -12.6 °C -18 °C 34476.3 hPa NNW 50.7 km/h 50.7 km/h 50 % 0 mm 387.0 W/m2 CLR
14:34 -12.6 °C -17.9 °C 34476.3 hPa NW 41.7 km/h 41.7 km/h 51 % 0 mm 374.0 W/m2 CLR
14:39 -12.6 °C -17.9 °C 34476.3 hPa North 41.7 km/h 41.7 km/h 51 % 0 mm 392.0 W/m2 CLR
14:44 -12.2 °C -17.6 °C 34476.3 hPa North 59.5 km/h 59.5 km/h 51 % 0 mm 367.0 W/m2 CLR
14:49 -12.2 °C -17.7 °C 34476.3 hPa North 53.6 km/h 53.6 km/h 50 % 0 mm 369.0 W/m2 CLR
14:50 -12.2 °C -17.7 °C 34476.3 hPa NW 53.6 km/h 53.6 km/h 50 % 0 mm 369.0 W/m2 CLR
14:55 -12.2 °C -17.7 °C 34462.7 hPa NNW 44.7 km/h 44.7 km/h 50 % 0 mm 343.0 W/m2 CLR
15:00 -12.6 °C -18.2 °C 34476.3 hPa NW 50.7 km/h 50.7 km/h 49 % 0 mm 155.0 W/m2 CLR
15:05 -12.8 °C -18.3 °C 34476.3 hPa NNW 44.7 km/h 44.7 km/h 50 % 0 mm 47.0 W/m2 CLR
15:10 -12.8 °C -18.2 °C 34462.7 hPa NNW 47.6 km/h 47.6 km/h 51 % 0 mm 313.0 W/m2 SCT
15:20 -12.6 °C -18 °C 34462.7 hPa NNW 54.4 km/h 54.4 km/h 50 % 0 mm 287.0 W/m2 CLR
15:30 -12.2 °C -17.9 °C 34476.3 hPa NNW 53.6 km/h 53.6 km/h 49 % 0 mm 269.0 W/m2 CLR
15:40 -12.2 °C -18.1 °C 34476.3 hPa NW 50.7 km/h 50.7 km/h 48 % 0 mm 241.0 W/m2 CLR
15:45 -12.2 °C -18.1 °C 34476.3 hPa NNW 62.6 km/h 62.6 km/h 48 % 0 mm 229.0 W/m2 CLR
16:05 -12.8 °C -18.5 °C 34476.3 hPa North 56.6 km/h 56.6 km/h 49 % 0 mm 169.0 W/m2 CLR
16:10 -12.8 °C -18.5 °C 34486.4 hPa NNW 32.8 km/h 32.8 km/h 49 % 0 mm 155.0 W/m2 CLR
16:15 -12.8 °C -18.5 °C 34486.4 hPa North 49.2 km/h 49.2 km/h 49 % 0 mm 141.0 W/m2 CLR
16:20 -12.8 °C -18.5 °C 34486.4 hPa NNW 50.7 km/h 50.7 km/h 49 % 0 mm 127.0 W/m2 CLR
16:25 -12.8 °C -18.3 °C 34486.4 hPa NNW 68.6 km/h 68.6 km/h 50 % 0 mm 88.0 W/m2 CLR
16:30 -13.2 °C -18.4 °C 34486.4 hPa NW 50.7 km/h 50.7 km/h 51 % 0 mm 30.0 W/m2 FEW
16:35 -13.2 °C -18.3 °C 34486.4 hPa NNW 59.5 km/h 59.5 km/h 52 % 0 mm 86.0 W/m2 CLR
16:40 -13.2 °C -18.2 °C 34496.6 hPa North 62.6 km/h 62.6 km/h 53 % 0 mm 69.0 W/m2 FEW
16:45 -13.2 °C -18.2 °C 34496.6 hPa North 59.5 km/h 59.5 km/h 53 % 0 mm 54.0 W/m2 SCT
16:50 -13.2 °C -18.2 °C 34496.6 hPa NNW 41.7 km/h 41.7 km/h 53 % 0 mm 49.0 W/m2 SCT
16:55 -13.4 °C -18.4 °C 34496.6 hPa North 41.7 km/h 41.7 km/h 53 % 0 mm 39.0 W/m2 BKN
17:00 -13.4 °C -18.4 °C 34496.6 hPa North 44.7 km/h 44.7 km/h 53 % 0 mm 30.0 W/m2 BKN
17:15 -13.4 °C -18.2 °C 34510.1 hPa NNW 36.2 km/h 36.2 km/h 55 % 0 mm 12.0 W/m2 BKN
17:20 -13.4 °C -18.2 °C 34510.1 hPa NW 35.7 km/h 35.7 km/h 55 % 0 mm 11.0 W/m2 BKN
17:30 -13.8 °C -18.3 °C 34510.1 hPa North 41.4 km/h 41.4 km/h 56 % 0 mm 5.0 W/m2 OVC
17:45 -13.8 °C -18.3 °C 34520.3 hPa NNW 29.8 km/h 29.8 km/h 56 % 0 mm 0.0 W/m2 CLR
17:50 -13.8 °C -18.3 °C 34520.3 hPa NNW 47.6 km/h 47.6 km/h 56 % 0 mm 0.0 W/m2 CLR
17:55 -14.1 °C -18.5 °C 34520.3 hPa NW 35.7 km/h 35.7 km/h 57 % 0 mm 0.0 W/m2 CLR
18:00 -14.1 °C -18.5 °C 34520.3 hPa NNW 31.1 km/h 31.1 km/h 57 % 0 mm 0.0 W/m2 CLR
18:05 -14.1 °C -18.5 °C 34533.8 hPa NNW 38.8 km/h 38.8 km/h 57 % 0 mm 0.0 W/m2 CLR
18:10 -14.1 °C -18.5 °C 34520.3 hPa North 32.8 km/h 32.8 km/h 57 % 0 mm 0.0 W/m2 CLR
18:15 -14.4 °C -18.8 °C 34520.3 hPa NW 31.1 km/h 31.1 km/h 57 % 0 mm 0.0 W/m2 CLR
18:20 -14.4 °C -18.7 °C 34533.8 hPa NNW 36.2 km/h 36.2 km/h 58 % 0 mm 0.0 W/m2 CLR
18:30 -14.4 °C -18.7 °C 34533.8 hPa NW 26.9 km/h 26.9 km/h 58 % 0 mm 0.0 W/m2 CLR
18:35 -14.4 °C -18.7 °C 34533.8 hPa NNW 35.7 km/h 35.7 km/h 58 % 0 mm 0.0 W/m2 CLR
18:40 -14.4 °C -18.5 °C 34533.8 hPa NW 26.9 km/h 26.9 km/h 59 % 0 mm 0.0 W/m2 CLR
18:45 -14.4 °C -18.5 °C 34533.8 hPa NNW 29.8 km/h 29.8 km/h 59 % 0 mm 0.0 W/m2 CLR
19:00 -14.4 °C -18.4 °C 34544 hPa NW 35.7 km/h 35.7 km/h 60 % 0 mm 0.0 W/m2 CLR
19:05 -14.7 °C -18.8 °C 34544 hPa NW 47.6 km/h 47.6 km/h 59 % 0 mm 0.0 W/m2 CLR
19:10 -14.7 °C -18.7 °C 34544 hPa NW 35.7 km/h 35.7 km/h 60 % 0 mm 0.0 W/m2 CLR
19:15 -14.7 °C -18.7 °C 34533.8 hPa NW 35.7 km/h 35.7 km/h 60 % 0 mm 0.0 W/m2 CLR
19:20 -14.7 °C -18.7 °C 34533.8 hPa NNW 32.8 km/h 32.8 km/h 60 % 0 mm 0.0 W/m2 CLR
19:25 -14.7 °C -18.7 °C 34533.8 hPa NNW 29.8 km/h 29.8 km/h 60 % 0 mm 0.0 W/m2 CLR
19:30 -14.7 °C -18.6 °C 34533.8 hPa NW 38.8 km/h 38.8 km/h 61 % 0 mm 0.0 W/m2 CLR
19:35 -14.7 °C -18.6 °C 34533.8 hPa NNW 41.7 km/h 41.7 km/h 61 % 0 mm 0.0 W/m2 CLR
19:45 -14.7 °C -18.4 °C 34544 hPa NW 47.6 km/h 47.6 km/h 62 % 0 mm 0.0 W/m2 CLR
19:46 -14.7 °C -18.4 °C 34544 hPa NNW 47.6 km/h 47.6 km/h 62 % 0 mm 0.0 W/m2 CLR
19:51 -14.7 °C -18.3 °C 34533.8 hPa NNW 41.7 km/h 41.7 km/h 63 % 0 mm 0.0 W/m2 CLR
19:56 -14.7 °C -18.3 °C 34544 hPa NNW 41.7 km/h 41.7 km/h 63 % 0 mm 0.0 W/m2 CLR
20:01 -14.7 °C -18.3 °C 34544 hPa NW 44.7 km/h 44.7 km/h 63 % 0 mm 0.0 W/m2 CLR
20:06 -14.7 °C -18.3 °C 34544 hPa NW 41.7 km/h 41.7 km/h 63 % 0 mm 0.0 W/m2 CLR
20:21 -14.7 °C -18.2 °C 34544 hPa NW 44.1 km/h 44.1 km/h 64 % 0 mm 0.0 W/m2 CLR
20:26 -14.7 °C -18.2 °C 34544 hPa NW 44.7 km/h 44.7 km/h 64 % 0 mm 0.0 W/m2 CLR
20:36 -14.7 °C -18.2 °C 34554.1 hPa NW 35.7 km/h 35.7 km/h 64 % 0 mm 0.0 W/m2 CLR
20:41 -14.7 °C -18.1 °C 34554.1 hPa NNW 35.7 km/h 35.7 km/h 65 % 0 mm 0.0 W/m2 CLR
20:46 -15 °C -18.2 °C 34554.1 hPa NW 32.8 km/h 32.8 km/h 66 % 0 mm 0.0 W/m2 CLR
20:51 -15 °C -18.1 °C 34554.1 hPa NNW 41.7 km/h 41.7 km/h 67 % 0 mm 0.0 W/m2 CLR
20:56 -15 °C -18.1 °C 34554.1 hPa NW 41.7 km/h 41.7 km/h 67 % 0 mm 0.0 W/m2 CLR
21:01 -14.7 °C -17.8 °C 34554.1 hPa NW 50.7 km/h 50.7 km/h 67 % 0 mm 0.0 W/m2 CLR
21:06 -15 °C -18 °C 34554.1 hPa WNW 29.8 km/h 29.8 km/h 68 % 0 mm 0.0 W/m2 CLR
21:11 -15 °C -18 °C 34567.7 hPa NW 41.7 km/h 41.7 km/h 68 % 0 mm 0.0 W/m2 CLR
21:16 -15 °C -17.9 °C 34567.7 hPa NNW 36.2 km/h 36.2 km/h 69 % 0 mm 0.0 W/m2 CLR
21:21 -15 °C -17.8 °C 34567.7 hPa NW 29.8 km/h 29.8 km/h 70 % 0 mm 0.0 W/m2 CLR
21:26 -15 °C -17.8 °C 34567.7 hPa NW 41.7 km/h 41.7 km/h 70 % 0 mm 0.0 W/m2 CLR
21:31 -15 °C -17.8 °C 34567.7 hPa NNW 47.6 km/h 47.6 km/h 70 % 0 mm 0.0 W/m2 CLR
21:36 -15 °C -17.8 °C 34567.7 hPa NW 36.2 km/h 36.2 km/h 70 % 0 mm 0.0 W/m2 CLR
21:46 -15 °C -17.8 °C 34567.7 hPa NW 44.7 km/h 44.7 km/h 70 % 0 mm 0.0 W/m2 CLR
21:56 -15 °C -17.8 °C 34577.8 hPa NW 38.8 km/h 38.8 km/h 70 % 0 mm 0.0 W/m2 CLR
22:06 -15 °C -17.8 °C 34577.8 hPa NW 33.6 km/h 33.6 km/h 70 % 0 mm 0.0 W/m2 CLR
22:11 -15 °C -17.8 °C 34577.8 hPa NW 32.8 km/h 32.8 km/h 70 % 0 mm 0.0 W/m2 CLR
22:16 -15 °C -17.8 °C 34577.8 hPa WNW 29.8 km/h 29.8 km/h 70 % 0 mm 0.0 W/m2 CLR
22:21 -15 °C -17.8 °C 34577.8 hPa WNW 31.1 km/h 31.1 km/h 70 % 0 mm 0.0 W/m2 CLR
22:26 -15 °C -17.8 °C 34577.8 hPa NW 32.8 km/h 32.8 km/h 70 % 0 mm 0.0 W/m2 CLR
22:36 -15 °C -17.8 °C 34577.8 hPa WNW 35.7 km/h 35.7 km/h 70 % 0 mm 0.0 W/m2 CLR
22:56 -15.3 °C -17.9 °C 34567.7 hPa NNW 29.8 km/h 29.8 km/h 71 % 0 mm 0.0 W/m2 CLR
23:01 -15 °C -17.7 °C 34567.7 hPa NNW 33.6 km/h 33.6 km/h 71 % 0 mm 0.0 W/m2 CLR
23:06 -15 °C -17.7 °C 34567.7 hPa NNW 41.7 km/h 41.7 km/h 71 % 0 mm 0.0 W/m2 CLR
23:11 -15 °C -17.7 °C 34567.7 hPa NW 35.7 km/h 35.7 km/h 71 % 0 mm 0.0 W/m2 CLR
23:16 -15.3 °C -17.9 °C 34567.7 hPa NW 32.8 km/h 32.8 km/h 71 % 0 mm 0.0 W/m2 CLR
23:21 -15.3 °C -17.9 °C 34567.7 hPa NW 35.7 km/h 35.7 km/h 71 % 0 mm 0.0 W/m2 CLR
23:26 -15.3 °C -17.9 °C 34567.7 hPa NW 29.8 km/h 29.8 km/h 71 % 0 mm 0.0 W/m2 CLR
23:36 -15.3 °C -17.9 °C 34554.1 hPa NW 26.9 km/h 26.9 km/h 71 % 0 mm 0.0 W/m2 CLR
23:41 -15.3 °C -17.9 °C 34554.1 hPa WNW 23.8 km/h 23.8 km/h 71 % 0 mm 0.0 W/m2 CLR
23:46 -15.3 °C -17.9 °C 34554.1 hPa WNW 20.9 km/h 20.9 km/h 71 % 0 mm 0.0 W/m2 CLR
23:51 -15.6 °C -18.4 °C 34554.1 hPa NW 23.8 km/h 23.8 km/h 70 % 0 mm 0.0 W/m2 CLR
23:56 -15.6 °C -18.4 °C 34554.1 hPa WNW 20.9 km/h 20.9 km/h 70 % 0 mm 0.0 W/m2 CLR
Lo Temps de Massalio
Compliments of Weather Underground - 1 mb